Terminal Aerodrome Forecast
Issued by NWS

Home | Current Version | Previous Version | Text Only | Print | Product List | Glossary On
Versions: 1 2 3 4 5 6 7 8 9 10 11 12
000
FTUS44 KTSA 301100
TAFRVS
TAF
KRVS 301120Z 3012/3112 00000KT P6SM -SHRA OVC060
     FM301500 11005KT 5SM -RA OVC025
     FM302000 12007KT 2SM RA OVC015
     FM310300 08005KT 4SM -RA OVC015
     FM310900 04003KT 4SM BR OVC007=

USA.gov is the U.S. government's official web portal to all federal, state and local government web resources and services.